Flight Track Log - Related Links

Times and Time Zones

All times are in EDT time to prevent confusion due to time zone crossing. See the ZS-SNC flight status page for this flight to view local times or setup timezone preferences in your user account.

Time Position Orientation Groundspeed Altitude Reporting Facility
EDT Latitude Longitude Course Direction KTS MPH feet Rate Location/Type
Mon 01:57:27 PM -26.1470 28.2340 193° South 193 222 5,600  Level FlightAware ADS-B
Mon 01:57:37 PM -26.1580 28.2310 194° South 186 214 6,000 1,680 Climbing FlightAware ADS-B
Mon 01:57:52 PM -26.1690 28.2270 198° South 189 217 6,300 1,467 Climbing FlightAware ADS-B
Mon 01:58:22 PM -26.1940 28.2190 196° South 189 217 7,100 1,108 Climbing FlightAware ADS-B
Mon 01:58:57 PM -26.2250 28.2060 201° Southwest 206 237 7,500 600 Climbing FlightAware ADS-B
Mon 01:59:12 PM -26.2340 28.1890 239° Southwest 221 254 7,600 720 Climbing FlightAware ADS-B
Mon 01:59:22 PM -26.2350 28.1780 264° West 229 264 7,800 1,000 Climbing FlightAware ADS-B
Mon 01:59:42 PM -26.2280 28.1580 291° West 240 276 8,100 1,029 Climbing FlightAware ADS-B
Mon 01:59:57 PM -26.2150 28.1490 328° Northwest 243 280 8,400 933 Climbing FlightAware ADS-B
Mon 02:00:27 PM -26.1800 28.1440 353° North 256 295 8,800 873 Climbing FlightAware ADS-B
Mon 02:00:52 PM -26.1500 28.1400 353° North 272 313 9,200 982 Climbing FlightAware ADS-B
Mon 02:01:22 PM -26.1080 28.1340 353° North 290 334 9,700 960 Climbing FlightAware ADS-B
Mon 02:02:07 PM -26.0440 28.1240 352° North 323 372 10,400 867 Climbing FlightAware ADS-B
Mon 02:02:52 PM -25.9720 28.1130 352° North 363 418 11,000 847 Climbing FlightAware ADS-B
Mon 02:03:32 PM -25.9040 28.1020 352° North 393 452 11,600 1,553 Climbing FlightAware ADS-B
Mon 02:04:17 PM -25.8180 28.0860 350° North 404 465 13,200 1,976 Climbing FlightAware ADS-B
Mon 02:04:57 PM -25.7450 28.0730 351° North 411 473 14,400 1,835 Climbing FlightAware ADS-B
Mon 02:05:42 PM -25.6610 28.0580 351° North 419 482 15,800 1,765 Climbing FlightAware ADS-B
Mon 02:06:22 PM -25.5820 28.0440 351° North 427 491 16,900 1,543 Climbing FlightAware ADS-B
Mon 02:06:52 PM -25.5210 28.0330 351° North 434 499 17,600 1,543 Climbing FlightAware ADS-B
Mon 02:07:32 PM -25.4420 28.0190 351° North 439 505 18,700 1,500 Climbing FlightAware ADS-B
Mon 02:08:12 PM -25.3610 28.0040 351° North 446 513 19,600 1,440 Climbing FlightAware ADS-B
Mon 02:08:47 PM -25.2880 27.9910 351° North 451 519 20,500 1,569 Climbing FlightAware ADS-B
Mon 02:09:17 PM -25.2320 27.9810 351° North 450 518 21,300 1,543 Climbing FlightAware ADS-B
Mon 02:09:57 PM -25.1440 27.9660 351° North 455 524 22,300 1,341 Climbing FlightAware ADS-B
Mon 02:10:42 PM -25.0490 27.9490 351° North 464 534 23,200 1,129 Climbing FlightAware ADS-B
Mon 02:11:22 PM -24.9620 27.9340 351° North 473 544 23,900 1,200 Climbing FlightAware ADS-B
Mon 02:12:07 PM -24.8680 27.9170 351° North 476 548 24,900 1,341 Climbing FlightAware ADS-B
Mon 02:12:47 PM -24.7780 27.9010 351° North 479 551 25,800 1,125 Climbing FlightAware ADS-B
Mon 02:13:27 PM -24.6890 27.8850 351° North 486 559 26,400 918 Climbing FlightAware ADS-B
Mon 02:14:12 PM -24.5940 27.8690 351° North 493 567 27,100 825 Climbing FlightAware ADS-B
Mon 02:14:47 PM -24.5140 27.8550 351° North 500 575 27,500 857 Climbing FlightAware ADS-B
Mon 02:15:22 PM -24.4330 27.8400 350° North 504 580 28,100 1,108 Climbing FlightAware ADS-B
Mon 02:15:52 PM -24.3680 27.8290 351° North 504 580 28,700 1,457 Climbing FlightAware ADS-B
Mon 02:16:32 PM -24.2550 27.8090 351° North 500 575 29,800 1,425 Climbing FlightAware ADS-B
Mon 02:17:12 PM -24.1620 27.7930 351° North 497 572 30,600 1,200 Climbing FlightAware ADS-B
Mon 02:17:52 PM -24.0720 27.7770 351° North 495 570 31,400 1,200 Climbing FlightAware ADS-B
Mon 02:18:42 PM -23.9630 27.7580 351° North 488 562 32,400 1,200 Climbing FlightAware ADS-B
Mon 02:19:27 PM -23.8610 27.7400 351° North 481 554 33,300 847 Climbing FlightAware ADS-B
Mon 02:20:07 PM -23.7800 27.7260 351° North 484 557 33,600 600 Climbing FlightAware ADS-B
Mon 02:20:47 PM -23.6870 27.7100 351° North 483 556 34,100 776 Climbing FlightAware ADS-B
Mon 02:21:32 PM -23.5880 27.6930 351° North 479 551 34,700 565 Climbing FlightAware ADS-B
Mon 02:22:12 PM -23.5040 27.6780 351° North 478 550 34,900 150 Climbing FlightAware ADS-B
Mon 02:22:52 PM -23.4300 27.6630 349° North 478 550 34,900  Level FlightAware ADS-B
Mon 02:23:32 PM -23.3560 27.6490 350° North 478 550 34,900  Level FlightAware ADS-B
Mon 02:24:22 PM -23.2630 27.6310 350° North 478 550 34,900  Level FlightAware ADS-B
Mon 02:25:02 PM -23.1890 27.6170 350° North 478 550 34,900  Level FlightAware ADS-B
Mon 02:25:42 PM -23.1150 27.6030 350° North 478 550 34,900  Level FlightAware ADS-B
Mon 02:26:22 PM -23.0410 27.5890 350° North 478 550 34,900  Level FlightAware ADS-B
Mon 02:26:52 PM -22.9860 27.5780 350° North 478 550 34,900  Level FlightAware ADS-B
Mon 02:27:32 PM -22.9110 27.5640 350° North 478 550 34,900  Level FlightAware ADS-B
Mon 02:28:12 PM -22.8370 27.5500 350° North 478 550 34,900  Level FlightAware ADS-B
Mon 02:29:02 PM -22.7450 27.5320 350° North 478 550 34,900  Level FlightAware ADS-B
Mon 02:29:42 PM -22.6710 27.5180 350° North 478 550 34,900  Level FlightAware ADS-B
Mon 02:30:12 PM -22.6150 27.5070 350° North 478 550 34,900  Level FlightAware ADS-B
Mon 02:30:52 PM -22.5410 27.4930 350° North 478 550 34,900  Level FlightAware ADS-B
Mon 02:31:32 PM -22.4670 27.4790 350° North 478 550 34,900 Level FlightAware ADS-B
Mon 02:34:00 PM -22.1605 27.4056 348° North  Level Estimated
Mon 02:35:00 PM -22.0362 27.3760 348° North  Level Estimated
Mon 02:36:00 PM -21.9119 27.3464 348° North  Level Estimated
Mon 02:37:00 PM -21.7877 27.3168 348° North  Level Estimated
Mon 02:38:00 PM -21.6634 27.2873 348° North  Level Estimated
Mon 02:39:00 PM -21.5391 27.2579 348° North  Level Estimated
Mon 02:40:00 PM -21.4148 27.2285 348° North  Level Estimated
Mon 02:41:00 PM -21.2905 27.1991 348° North  Level Estimated
Mon 02:42:00 PM -21.1662 27.1698 348° North  Level Estimated
Mon 02:43:00 PM -21.0419 27.1406 348° North  Level Estimated
Mon 02:44:00 PM -20.9175 27.1114 348° North  Level Estimated
Mon 02:45:00 PM -20.7932 27.0822 348° North  Level Estimated
Mon 02:46:00 PM -20.6689 27.0531 348° North  Level Estimated
Mon 02:47:00 PM -20.5446 27.0241 348° North  Level Estimated
Mon 02:48:00 PM -20.4202 26.9951 348° North  Level Estimated
Mon 02:49:00 PM -20.2959 26.9661 348° North  Level Estimated
Mon 02:50:00 PM -20.1716 26.9372 348° North  Level Estimated
Mon 02:51:00 PM -20.0472 26.9083 348° North  Level Estimated
Mon 02:52:00 PM -19.9228 26.8795 348° North  Level Estimated
Mon 02:53:00 PM -19.7985 26.8507 348° North  Level Estimated
Mon 02:54:00 PM -19.6741 26.8220 348° North  Level Estimated
Mon 02:55:00 PM -19.5498 26.7933 348° North  Level Estimated
Mon 02:56:00 PM -19.4254 26.7647 348° North  Level Estimated
Mon 02:57:00 PM -19.3010 26.7361 348° North  Level Estimated
Mon 02:58:00 PM -19.1766 26.7075 348° North  Level Estimated
Mon 02:59:00 PM -19.0522 26.6790 348° North  Level Estimated
Mon 03:00:00 PM -18.9279 26.6505 348° North  Level Estimated
Mon 03:01:00 PM -18.8035 26.6221 348° North  Level Estimated
Mon 03:02:00 PM -18.6791 26.5937 348° North  Level Estimated
Mon 03:03:00 PM -18.5547 26.5654 348° North  Level Estimated
Mon 03:04:00 PM -18.4303 26.5371 348° North  Level Estimated
Mon 03:05:00 PM -18.3058 26.5088 348° North  Level Estimated
Mon 03:06:00 PM -18.1814 26.4806 348° North  Level Estimated
Mon 03:07:00 PM -18.0570 26.4524 348° North  Level Estimated
Mon 03:08:00 PM -17.9326 26.4243 348° North  Level Estimated
Mon 03:09:00 PM -17.8081 26.3962 348° North  Level Estimated
Mon 03:10:00 PM -17.6837 26.3681 348° North  Level Estimated
Mon 03:11:00 PM -17.5593 26.3401 348° North  Level Estimated
Mon 03:12:00 PM -17.4348 26.3121 348° North  Level Estimated
Mon 03:13:00 PM -17.3104 26.2842 348° North  Level Estimated
Mon 03:14:00 PM -17.1859 26.2563 348° North  Level Estimated
Mon 03:15:00 PM -17.0615 26.2284 348° North  Level Estimated
Mon 03:16:00 PM -16.9370 26.2006 348° North  Level Estimated
Mon 03:17:00 PM -16.8126 26.1728 348° North  Level Estimated
Mon 03:18:00 PM -16.6881 26.1450 348° North  Level Estimated
Mon 03:19:00 PM -16.5637 26.1173 348° North  Level Estimated
Mon 03:20:00 PM -16.4392 26.0896 348° North  Level Estimated
Mon 03:21:00 PM -16.3147 26.0619 348° North  Level Estimated
Mon 03:22:00 PM -16.1902 26.0343 348° North  Level Estimated
Mon 03:23:00 PM -16.0658 26.0067 348° North  Level Estimated
Mon 03:24:00 PM -15.9413 25.9792 348° North  Level Estimated
Mon 03:25:00 PM -15.8168 25.9517 348° North  Level Estimated
Mon 03:26:00 PM -15.6923 25.9242 348° North  Level Estimated
Mon 03:27:00 PM -15.5678 25.8967 348° North  Level Estimated
Mon 03:28:00 PM -15.4433 25.8693 348° North  Level Estimated
Mon 03:29:00 PM -15.3188 25.8419 348° North  Level Estimated
Mon 03:30:00 PM -15.1943 25.8146 348° North  Level Estimated
Mon 03:31:00 PM -15.0698 25.7873 348° North  Level Estimated
Mon 03:32:00 PM -14.9453 25.7600 348° North  Level Estimated
Mon 03:33:00 PM -14.8208 25.7327 348° North  Level Estimated
Mon 03:34:00 PM -14.6962 25.7055 348° North  Level Estimated
Mon 03:35:00 PM -14.5717 25.6783 348° North  Level Estimated
Mon 03:36:00 PM -14.4472 25.6512 348° North  Level Estimated
Mon 03:37:00 PM -14.3227 25.6241 348° North  Level Estimated
Mon 03:38:00 PM -14.1981 25.5970 348° North  Level Estimated
Mon 03:39:00 PM -14.0736 25.5699 348° North  Level Estimated
Mon 03:40:00 PM -13.9491 25.5428 348° North  Level Estimated
Mon 03:41:00 PM -13.8245 25.5158 348° North  Level Estimated
Mon 03:42:00 PM -13.7000 25.4888 348° North  Level Estimated
Mon 03:43:00 PM -13.5754 25.4619 348° North  Level Estimated
Mon 03:44:00 PM -13.4509 25.4350 348° North  Level Estimated
Mon 03:45:00 PM -13.3264 25.4081 348° North  Level Estimated
Mon 03:46:00 PM -13.2018 25.3812 348° North  Level Estimated
Mon 03:47:00 PM -13.0772 25.3544 348° North  Level Estimated
Mon 03:48:00 PM -12.9527 25.3276 348° North  Level Estimated
Mon 03:49:00 PM -12.8281 25.3008 348° North  Level Estimated
Mon 03:50:00 PM -12.7036 25.2740 348° North  Level Estimated
Mon 03:51:00 PM -12.5790 25.2473 348° North  Level Estimated
Mon 03:52:00 PM -12.4544 25.2206 348° North  Level Estimated
Mon 03:53:00 PM -12.3299 25.1939 348° North  Level Estimated
Mon 03:54:00 PM -12.2053 25.1672 348° North  Level Estimated
Mon 03:55:00 PM -12.0807 25.1406 348° North  Level Estimated
Mon 03:56:00 PM -11.9561 25.1140 348° North  Level Estimated
Mon 03:57:00 PM -11.8315 25.0874 348° North  Level Estimated
Mon 03:58:00 PM -11.7069 25.0608 348° North  Level Estimated
Mon 03:59:00 PM -11.5823 25.0343 348° North  Level Estimated
Mon 04:00:00 PM -11.4578 25.0078 348° North  Level Estimated
Mon 04:01:00 PM -11.3332 24.9813 348° North  Level Estimated
Mon 04:02:00 PM -11.2086 24.9548 348° North  Level Estimated
Mon 04:03:00 PM -11.0840 24.9284 348° North  Level Estimated
Mon 04:04:00 PM -10.9594 24.9020 348° North  Level Estimated
Mon 04:05:00 PM -10.8348 24.8756 348° North  Level Estimated
Mon 04:06:00 PM -10.7102 24.8492 348° North  Level Estimated
Mon 04:07:00 PM -10.5856 24.8228 348° North  Level Estimated
Mon 04:08:00 PM -10.4609 24.7965 348° North  Level Estimated
Mon 04:09:00 PM -10.3363 24.7702 348° North  Level Estimated
Mon 04:10:00 PM -10.2117 24.7439 348° North  Level Estimated
Mon 04:11:00 PM -10.0871 24.7176 348° North  Level Estimated
Mon 04:12:00 PM -9.9625 24.6914 348° North  Level Estimated
Mon 04:13:00 PM -9.8379 24.6651 348° North  Level Estimated
Mon 04:14:00 PM -9.7133 24.6389 348° North  Level Estimated
Mon 04:15:00 PM -9.5886 24.6127 348° North  Level Estimated
Mon 04:16:00 PM -9.4640 24.5866 348° North  Level Estimated
Mon 04:17:00 PM -9.3394 24.5604 348° North  Level Estimated
Mon 04:18:00 PM -9.2147 24.5343 348° North  Level Estimated
Mon 04:19:00 PM -9.0901 24.5082 348° North  Level Estimated
Mon 04:20:00 PM -8.9655 24.4821 348° North  Level Estimated
Mon 04:21:00 PM -8.8408 24.4560 348° North  Level Estimated
Mon 04:22:00 PM -8.7162 24.4299 348° North  Level Estimated
Mon 04:23:00 PM -8.5916 24.4039 348° North  Level Estimated
Mon 04:24:00 PM -8.4669 24.3779 348° North  Level Estimated
Mon 04:25:00 PM -8.3423 24.3519 348° North  Level Estimated
Mon 04:26:00 PM -8.2177 24.3259 348° North  Level Estimated
Mon 04:27:00 PM -8.0930 24.2999 348° North  Level Estimated
Mon 04:28:00 PM -7.9683 24.2739 348° North  Level Estimated
Mon 04:29:00 PM -7.8437 24.2480 348° North  Level Estimated
Mon 04:30:00 PM -7.7190 24.2220 348° North  Level Estimated
Mon 04:31:00 PM -7.5944 24.1961 348° North  Level Estimated
Mon 04:32:00 PM -7.4697 24.1702 348° North  Level Estimated
Mon 04:33:00 PM -7.3451 24.1443 348° North  Level Estimated
Mon 04:34:00 PM -7.2204 24.1185 348° North  Level Estimated
Mon 04:35:00 PM -7.0958 24.0926 348° North  Level Estimated
Mon 04:36:00 PM -6.9711 24.0668 348° North  Level Estimated
Mon 04:37:00 PM -6.8465 24.0409 348° North  Level Estimated
Mon 04:38:00 PM -6.7218 24.0151 348° North  Level Estimated
Mon 04:39:00 PM -6.5971 23.9893 348° North  Level Estimated
Mon 04:40:00 PM -6.4725 23.9635 348° North  Level Estimated
Mon 04:41:00 PM -6.3478 23.9377 348° North  Level Estimated
Mon 04:42:00 PM -6.2231 23.9120 348° North  Level Estimated
Mon 04:43:00 PM -6.0985 23.8862 348° North  Level Estimated
Mon 04:44:00 PM -5.9738 23.8605 348° North  Level Estimated
Mon 04:45:00 PM -5.8491 23.8348 348° North  Level Estimated
Mon 04:46:00 PM -5.7245 23.8090 348° North  Level Estimated
Mon 04:47:00 PM -5.5998 23.7833 348° North  Level Estimated
Mon 04:48:00 PM -5.4751 23.7577 348° North  Level Estimated
Mon 04:49:00 PM -5.3504 23.7320 348° North  Level Estimated
Mon 04:50:00 PM -5.2258 23.7063 348° North  Level Estimated
Mon 04:51:00 PM -5.1011 23.6806 348° North  Level Estimated
Mon 04:52:00 PM -4.9764 23.6550 348° North  Level Estimated
Mon 04:53:00 PM -4.8517 23.6294 348° North  Level Estimated
Mon 04:54:00 PM -4.7270 23.6037 348° North  Level Estimated
Mon 04:55:00 PM -4.6024 23.5781 348° North  Level Estimated
Mon 04:56:00 PM -4.4777 23.5525 348° North  Level Estimated
Mon 04:57:00 PM -4.3530 23.5269 348° North  Level Estimated
Mon 04:58:00 PM -4.2283 23.5013 348° North  Level Estimated
Mon 04:59:00 PM -4.1036 23.4757 348° North  Level Estimated
Mon 05:00:00 PM -3.9790 23.4501 348° North  Level Estimated
Mon 05:01:00 PM -3.8543 23.4245 348° North  Level Estimated
Mon 05:02:00 PM -3.7296 23.3990 348° North  Level Estimated
Mon 05:03:00 PM -3.6049 23.3734 348° North  Level Estimated
Mon 05:04:00 PM -3.4802 23.3479 348° North  Level Estimated
Mon 05:05:00 PM -3.3555 23.3223 348° North  Level Estimated
Mon 05:06:00 PM -3.2308 23.2968 348° North  Level Estimated
Mon 05:07:00 PM -3.1061 23.2712 348° North  Level Estimated
Mon 05:08:00 PM -2.9814 23.2457 348° North  Level Estimated
Mon 05:09:00 PM -2.8567 23.2202 348° North  Level Estimated
Mon 05:10:00 PM -2.7320 23.1947 348° North  Level Estimated
Mon 05:11:00 PM -2.6074 23.1691 348° North  Level Estimated
Mon 05:12:00 PM -2.4827 23.1436 348° North  Level Estimated
Mon 05:13:00 PM -2.3580 23.1181 348° North  Level Estimated
Mon 05:14:00 PM -2.2333 23.0926 348° North  Level Estimated
Mon 05:15:00 PM -2.1086 23.0672 348° North  Level Estimated
Mon 05:16:00 PM -1.9839 23.0417 348° North  Level Estimated
Mon 05:17:00 PM -1.8592 23.0162 348° North  Level Estimated
Mon 05:18:00 PM -1.7345 22.9907 348° North  Level Estimated
Mon 05:19:00 PM -1.6098 22.9652 348° North  Level Estimated
Mon 05:20:00 PM -1.4851 22.9398 348° North  Level Estimated
Mon 05:21:00 PM -1.3604 22.9143 348° North  Level Estimated
Mon 05:22:00 PM -1.2357 22.8888 348° North  Level Estimated
Mon 05:23:00 PM -1.1110 22.8633 348° North  Level Estimated
Mon 05:24:00 PM -0.9863 22.8379 348° North  Level Estimated
Mon 05:25:00 PM -0.8616 22.8124 348° North  Level Estimated
Mon 05:26:00 PM -0.7369 22.7870 348° North  Level Estimated
Mon 05:27:00 PM -0.6122 22.7615 348° North  Level Estimated
Mon 05:28:00 PM -0.4875 22.7360 348° North  Level Estimated
Mon 05:29:00 PM -0.3628 22.7106 348° North  Level Estimated
Mon 05:30:00 PM -0.2381 22.6851 348° North  Level Estimated
Mon 05:31:00 PM -0.1134 22.6597 348° North  Level Estimated
Mon 05:32:00 PM 0.0113 22.6342 348° North  Level Estimated
Mon 05:33:00 PM 0.1360 22.6088 348° North  Level Estimated
Mon 05:34:00 PM 0.2607 22.5833 348° North  Level Estimated
Mon 05:35:00 PM 0.3854 22.5578 348° North  Level Estimated
Mon 05:36:00 PM 0.5101 22.5324 348° North  Level Estimated
Mon 05:37:00 PM 0.6348 22.5069 348° North  Level Estimated
Mon 05:38:00 PM 0.7595 22.4815 348° North  Level Estimated
Mon 05:39:00 PM 0.8842 22.4560 348° North  Level Estimated
Mon 05:40:00 PM 1.0089 22.4305 348° North  Level Estimated
Mon 05:41:00 PM 1.1336 22.4051 348° North  Level Estimated
Mon 05:42:00 PM 1.2583 22.3796 348° North  Level Estimated
Mon 05:43:00 PM 1.3830 22.3541 348° North  Level Estimated
Mon 05:44:00 PM 1.5077 22.3287 348° North  Level Estimated
Mon 05:45:00 PM 1.6324 22.3032 348° North  Level Estimated
Mon 05:46:00 PM 1.7571 22.2777 348° North  Level Estimated
Mon 05:47:00 PM 1.8818 22.2522 348° North  Level Estimated
Mon 05:48:00 PM 2.0065 22.2268 348° North  Level Estimated
Mon 05:49:00 PM 2.1312 22.2013 348° North  Level Estimated
Mon 05:50:00 PM 2.2559 22.1758 348° North  Level Estimated
Mon 05:51:00 PM 2.3806 22.1503 348° North  Level Estimated
Mon 05:52:00 PM 2.5053 22.1248 348° North  Level Estimated
Mon 05:53:00 PM 2.6300 22.0993 348° North  Level Estimated
Mon 05:54:00 PM 2.7546 22.0738 348° North  Level Estimated
Mon 05:55:00 PM 2.8793 22.0482 348° North  Level Estimated
Mon 05:56:00 PM 3.0040 22.0227 348° North  Level Estimated
Mon 05:57:00 PM 3.1287 21.9972 348° North  Level Estimated
Mon 05:58:00 PM 3.2534 21.9717 348° North  Level Estimated
Mon 05:59:00 PM 3.3781 21.9461 348° North  Level Estimated
Mon 06:00:00 PM 3.5028 21.9206 348° North  Level Estimated
Mon 06:01:00 PM 3.6275 21.8950 348° North  Level Estimated
Mon 06:02:00 PM 3.7522 21.8695 348° North  Level Estimated
Mon 06:03:00 PM 3.8768 21.8439 348° North  Level Estimated
Mon 06:04:00 PM 4.0015 21.8183 348° North  Level Estimated
Mon 06:05:00 PM 4.1262 21.7927 348° North  Level Estimated
Mon 06:06:00 PM 4.2509 21.7671 348° North  Level Estimated
Mon 06:07:00 PM 4.3756 21.7415 348° North  Level Estimated
Mon 06:08:00 PM 4.5003 21.7159 348° North  Level Estimated
Mon 06:09:00 PM 4.6249 21.6903 348° North  Level Estimated
Mon 06:10:00 PM 4.7496 21.6647 348° North  Level Estimated
Mon 06:11:00 PM 4.8743 21.6390 348° North  Level Estimated
Mon 06:12:00 PM 4.9990 21.6134 348° North  Level Estimated
Mon 06:13:00 PM 5.1237 21.5877 348° North  Level Estimated
Mon 06:14:00 PM 5.2484 21.5621 348° North  Level Estimated
Mon 06:15:00 PM 5.3730 21.5364 348° North  Level Estimated
Mon 06:16:00 PM 5.4977 21.5107 348° North  Level Estimated
Mon 06:17:00 PM 5.6224 21.4850 348° North  Level Estimated
Mon 06:18:00 PM 5.7470 21.4593 348° North  Level Estimated
Mon 06:19:00 PM 5.8717 21.4336 348° North  Level Estimated
Mon 06:20:00 PM 5.9964 21.4079 348° North  Level Estimated
Mon 06:21:00 PM 6.1210 21.3821 348° North  Level Estimated
Mon 06:22:00 PM 6.2457 21.3564 348° North  Level Estimated
Mon 06:23:00 PM 6.3704 21.3306 348° North  Level Estimated
Mon 06:24:00 PM 6.4951 21.3048 348° North  Level Estimated
Mon 06:25:00 PM 6.6197 21.2790 348° North  Level Estimated
Mon 06:26:00 PM 6.7444 21.2532 348° North  Level Estimated
Mon 06:27:00 PM 6.8690 21.2274 348° North  Level Estimated
Mon 06:28:00 PM 6.9937 21.2016 348° North  Level Estimated
Mon 06:29:00 PM 7.1184 21.1758 348° North  Level Estimated
Mon 06:30:00 PM 7.2430 21.1499 348° North  Level Estimated
Mon 06:31:00 PM 7.3677 21.1240 348° North  Level Estimated
Mon 06:32:00 PM 7.4923 21.0981 348° North  Level Estimated
Mon 06:33:00 PM 7.6170 21.0722 348° North  Level Estimated
Mon 06:34:00 PM 7.7416 21.0463 348° North  Level Estimated
Mon 06:35:00 PM 7.8663 21.0204 348° North  Level Estimated
Mon 06:36:00 PM 7.9909 20.9944 348° North  Level Estimated
Mon 06:37:00 PM 8.1156 20.9685 348° North  Level Estimated
Mon 06:38:00 PM 8.2402 20.9425 348° North  Level Estimated
Mon 06:39:00 PM 8.3649 20.9165 348° North  Level Estimated
Mon 06:40:00 PM 8.4895 20.8905 348° North  Level Estimated
Mon 06:41:00 PM 8.6141 20.8645 348° North  Level Estimated
Mon 06:42:00 PM 8.7388 20.8384 348° North  Level Estimated
Mon 06:43:00 PM 8.8634 20.8123 348° North  Level Estimated
Mon 06:44:00 PM 8.9881 20.7862 348° North  Level Estimated
Mon 06:45:00 PM 9.1127 20.7602 348° North  Level Estimated
Mon 06:46:00 PM 9.2373 20.7340 348° North  Level Estimated
Mon 06:47:00 PM 9.3619 20.7079 348° North  Level Estimated
Mon 06:48:00 PM 9.4866 20.6817 348° North  Level Estimated
Mon 06:49:00 PM 9.6112 20.6556 348° North  Level Estimated
Mon 06:50:00 PM 9.7358 20.6294 348° North  Level Estimated
Mon 06:51:00 PM 9.8604 20.6031 348° North  Level Estimated
Mon 06:52:00 PM 9.9851 20.5769 348° North  Level Estimated
Mon 06:53:00 PM 10.1097 20.5507 348° North  Level Estimated
Mon 06:54:00 PM 10.2343 20.5244 348° North  Level Estimated
Mon 06:55:00 PM 10.3589 20.4981 348° North  Level Estimated
Mon 06:56:00 PM 10.4835 20.4718 348° North  Level Estimated
Mon 06:57:00 PM 10.6081 20.4454 348° North  Level Estimated
Mon 06:58:00 PM 10.7327 20.4191 348° North  Level Estimated
Mon 06:59:00 PM 10.8573 20.3927 348° North  Level Estimated
Mon 07:00:00 PM 10.9819 20.3663 348° North  Level Estimated
Mon 07:01:00 PM 11.1065 20.3399 348° North  Level Estimated
Mon 07:02:00 PM 11.2311 20.3134 348° North  Level Estimated
Mon 07:03:00 PM 11.3557 20.2870 348° North  Level Estimated
Mon 07:04:00 PM 11.4803 20.2605 348° North  Level Estimated
Mon 07:05:00 PM 11.6049 20.2339 348° North  Level Estimated
Mon 07:06:00 PM 11.7295 20.2074 348° North  Level Estimated
Mon 07:07:00 PM 11.8541 20.1808 348° North  Level Estimated
Mon 07:08:00 PM 11.9787 20.1543 348° North  Level Estimated
Mon 07:09:00 PM 12.1032 20.1276 348° North  Level Estimated
Mon 07:10:00 PM 12.2278 20.1010 348° North  Level Estimated
Mon 07:11:00 PM 12.3524 20.0744 348° North  Level Estimated
Mon 07:12:00 PM 12.4770 20.0477 348° North  Level Estimated
Mon 07:13:00 PM 12.6015 20.0210 348° North  Level Estimated
Mon 07:14:00 PM 12.7261 19.9942 348° North  Level Estimated
Mon 07:15:00 PM 12.8507 19.9674 348° North  Level Estimated
Mon 07:16:00 PM 12.9752 19.9407 348° North  Level Estimated
Mon 07:17:00 PM 13.0998 19.9138 348° North  Level Estimated
Mon 07:18:00 PM 13.2243 19.8870 348° North  Level Estimated
Mon 07:19:00 PM 13.3489 19.8601 348° North  Level Estimated
Mon 07:20:00 PM 13.4734 19.8332 348° North  Level Estimated
Mon 07:21:00 PM 13.5980 19.8063 348° North  Level Estimated
Mon 07:22:00 PM 13.7225 19.7793 348° North  Level Estimated
Mon 07:23:00 PM 13.8471 19.7523 348° North  Level Estimated
Mon 07:24:00 PM 13.9716 19.7253 348° North  Level Estimated
Mon 07:25:00 PM 14.0962 19.6983 348° North  Level Estimated
Mon 07:26:00 PM 14.2207 19.6712 348° North  Level Estimated
Mon 07:27:00 PM 14.3452 19.6441 348° North  Level Estimated
Mon 07:28:00 PM 14.4697 19.6170 348° North  Level Estimated
Mon 07:29:00 PM 14.5943 19.5898 348° North  Level Estimated
Mon 07:30:00 PM 14.7188 19.5626 348° North  Level Estimated
Mon 07:31:00 PM 14.8433 19.5354 348° North  Level Estimated
Mon 07:32:00 PM 14.9678 19.5081 348° North  Level Estimated
Mon 07:33:00 PM 15.0923 19.4808 348° North  Level Estimated
Mon 07:34:00 PM 15.2168 19.4535 348° North  Level Estimated
Mon 07:35:00 PM 15.3413 19.4261 348° North  Level Estimated
Mon 07:36:00 PM 15.4658 19.3988 348° North  Level Estimated
Mon 07:37:00 PM 15.5903 19.3713 348° North  Level Estimated
Mon 07:38:00 PM 15.7148 19.3439 348° North  Level Estimated
Mon 07:39:00 PM 15.8393 19.3164 348° North  Level Estimated
Mon 07:40:00 PM 15.9638 19.2889 348° North  Level Estimated
Mon 07:41:00 PM 16.0883 19.2613 348° North  Level Estimated
Mon 07:42:00 PM 16.2128 19.2337 348° North  Level Estimated
Mon 07:43:00 PM 16.3372 19.2061 348° North  Level Estimated
Mon 07:44:00 PM 16.4617 19.1784 348° North  Level Estimated
Mon 07:45:00 PM 16.5862 19.1507 348° North  Level Estimated
Mon 07:46:00 PM 16.7106 19.1230 348° North  Level Estimated
Mon 07:47:00 PM 16.8351 19.0952 348° North  Level Estimated
Mon 07:48:00 PM 16.9596 19.0674 348° North  Level Estimated
Mon 07:49:00 PM 17.0840 19.0396 348° North  Level Estimated
Mon 07:50:00 PM 17.2085 19.0117 348° North  Level Estimated
Mon 07:51:00 PM 17.3329 18.9838 348° North  Level Estimated
Mon 07:52:00 PM 17.4574 18.9559 348° North  Level Estimated
Mon 07:53:00 PM 17.5818 18.9279 348° North  Level Estimated
Mon 07:54:00 PM 17.7062 18.8998 348° North  Level Estimated
Mon 07:55:00 PM 17.8307 18.8718 348° North  Level Estimated
Mon 07:56:00 PM 17.9551 18.8437 348° North  Level Estimated
Mon 07:57:00 PM 18.0795 18.8155 348° North  Level Estimated
Mon 07:58:00 PM 18.2039 18.7873 348° North  Level Estimated
Mon 07:59:00 PM 18.3284 18.7591 348° North  Level Estimated
Mon 08:00:00 PM 18.4528 18.7308 348° North  Level Estimated
Mon 08:01:00 PM 18.5772 18.7025 348° North  Level Estimated
Mon 08:02:00 PM 18.7016 18.6742 348° North  Level Estimated
Mon 08:03:00 PM 18.8260 18.6458 348° North  Level Estimated
Mon 08:04:00 PM 18.9504 18.6173 348° North  Level Estimated
Mon 08:05:00 PM 19.0748 18.5889 348° North  Level Estimated
Mon 08:06:00 PM 19.1992 18.5603 348° North  Level Estimated
Mon 08:07:00 PM 19.3235 18.5318 348° North  Level Estimated
Mon 08:08:00 PM 19.4479 18.5032 348° North  Level Estimated
Mon 08:09:00 PM 19.5723 18.4745 348° North  Level Estimated
Mon 08:10:00 PM 19.6966 18.4458 348° North  Level Estimated
Mon 08:11:00 PM 19.8210 18.4171 348° North  Level Estimated
Mon 08:12:00 PM 19.9454 18.3883 348° North  Level Estimated
Mon 08:13:00 PM 20.0697 18.3595 348° North  Level Estimated
Mon 08:14:00 PM 20.1941 18.3306 348° North  Level Estimated
Mon 08:15:00 PM 20.3184 18.3017 348° North  Level Estimated
Mon 08:16:00 PM 20.4428 18.2727 348° North  Level Estimated
Mon 08:17:00 PM 20.5671 18.2437 348° North  Level Estimated
Mon 08:18:00 PM 20.6914 18.2146 348° North  Level Estimated
Mon 08:19:00 PM 20.8157 18.1855 348° North  Level Estimated
Mon 08:20:00 PM 20.9401 18.1563 348° North  Level Estimated
Mon 08:21:00 PM 21.0644 18.1271 348° North  Level Estimated
Mon 08:22:00 PM 21.1887 18.0979 348° North  Level Estimated
Mon 08:23:00 PM 21.3130 18.0686 348° North  Level Estimated
Mon 08:24:00 PM 21.4373 18.0392 348° North  Level Estimated
Mon 08:25:00 PM 21.5616 18.0098 348° North  Level Estimated
Mon 08:26:00 PM 21.6859 17.9804 348° North  Level Estimated
Mon 08:27:00 PM 21.8101 17.9509 348° North  Level Estimated
Mon 08:28:00 PM 21.9344 17.9213 348° North  Level Estimated
Mon 08:29:00 PM 22.0587 17.8917 348° North  Level Estimated
Mon 08:30:00 PM 22.1829 17.8620 348° North  Level Estimated
Mon 08:31:00 PM 22.3072 17.8323 348° North  Level Estimated
Mon 08:32:00 PM 22.4315 17.8026 348° North  Level Estimated
Mon 08:33:00 PM 22.5557 17.7727 348° North  Level Estimated
Mon 08:34:00 PM 22.6800 17.7429 347° North  Level Estimated
Mon 08:35:00 PM 22.8042 17.7129 347° North  Level Estimated
Mon 08:36:00 PM 22.9284 17.6830 347° North  Level Estimated
Mon 08:37:00 PM 23.0527 17.6529 347° North  Level Estimated
Mon 08:38:00 PM 23.1769 17.6228 347° North  Level Estimated
Mon 08:39:00 PM 23.3011 17.5927 347° North  Level Estimated
Mon 08:40:00 PM 23.4253 17.5625 347° North  Level Estimated
Mon 08:41:00 PM 23.5495 17.5322 347° North  Level Estimated
Mon 08:42:00 PM 23.6737 17.5019 347° North  Level Estimated
Mon 08:43:00 PM 23.7979 17.4715 347° North  Level Estimated
Mon 08:44:00 PM 23.9221 17.4411 347° North  Level Estimated
Mon 08:45:00 PM 24.0463 17.4106 347° North  Level Estimated
Mon 08:46:00 PM 24.1705 17.3801 347° North  Level Estimated
Mon 08:47:00 PM 24.2947 17.3494 347° North  Level Estimated
Mon 08:48:00 PM 24.4188 17.3188 347° North  Level Estimated
Mon 08:49:00 PM 24.5430 17.2880 347° North  Level Estimated
Mon 08:50:00 PM 24.6671 17.2572 347° North  Level Estimated
Mon 08:51:00 PM 24.7913 17.2264 347° North  Level Estimated
Mon 08:52:00 PM 24.9154 17.1955 347° North  Level Estimated
Mon 08:53:00 PM 25.0396 17.1645 347° North  Level Estimated
Mon 08:54:00 PM 25.1637 17.1335 347° North  Level Estimated
Mon 08:55:00 PM 25.2878 17.1024 347° North  Level Estimated
Mon 08:56:00 PM 25.4119 17.0712 347° North  Level Estimated
Mon 08:57:00 PM 25.5360 17.0400 347° North  Level Estimated
Mon 08:58:00 PM 25.6601 17.0087 347° North  Level Estimated
Mon 08:59:00 PM 25.7842 16.9773 347° North  Level Estimated
Mon 09:00:00 PM 25.9083 16.9459 347° North  Level Estimated
Mon 09:01:00 PM 26.0324 16.9144 347° North  Level Estimated
Mon 09:02:00 PM 26.1565 16.8828 347° North  Level Estimated
Mon 09:03:00 PM 26.2805 16.8512 347° North  Level Estimated
Mon 09:04:00 PM 26.4046 16.8195 347° North  Level Estimated
Mon 09:05:00 PM 26.5286 16.7877 347° North  Level Estimated
Mon 09:06:00 PM 26.6527 16.7559 347° North  Level Estimated
Mon 09:07:00 PM 26.7767 16.7240 347° North  Level Estimated
Mon 09:08:00 PM 26.9007 16.6920 347° North  Level Estimated
Mon 09:09:00 PM 27.0248 16.6600 347° North  Level Estimated
Mon 09:10:00 PM 27.1488 16.6279 347° North  Level Estimated
Mon 09:11:00 PM 27.2728 16.5957 347° North  Level Estimated
Mon 09:12:00 PM 27.3968 16.5634 347° North  Level Estimated
Mon 09:13:00 PM 27.5208 16.5311 347° North  Level Estimated
Mon 09:14:00 PM 27.6448 16.4987 347° North  Level Estimated
Mon 09:15:00 PM 27.7688 16.4662 347° North  Level Estimated
Mon 09:16:00 PM 27.8927 16.4337 347° North  Level Estimated
Mon 09:17:00 PM 28.0167 16.4011 347° North  Level Estimated
Mon 09:18:00 PM 28.1406 16.3684 347° North  Level Estimated
Mon 09:19:00 PM 28.2646 16.3356 347° North  Level Estimated
Mon 09:20:00 PM 28.3885 16.3027 347° North  Level Estimated
Mon 09:21:00 PM 28.5125 16.2698 347° North  Level Estimated
Mon 09:22:00 PM 28.6364 16.2368 347° North  Level Estimated
Mon 09:23:00 PM 28.7603 16.2037 347° North  Level Estimated
Mon 09:24:00 PM 28.8842 16.1705 347° North  Level Estimated
Mon 09:25:00 PM 29.0081 16.1373 347° North  Level Estimated
Mon 09:26:00 PM 29.1320 16.1040 347° North  Level Estimated
Mon 09:27:00 PM 29.2559 16.0706 347° North  Level Estimated
Mon 09:28:00 PM 29.3798 16.0371 347° North  Level Estimated
Mon 09:29:00 PM 29.5037 16.0035 347° North  Level Estimated
Mon 09:30:00 PM 29.6275 15.9699 347° North  Level Estimated
Mon 09:31:00 PM 29.7514 15.9362 347° North  Level Estimated
Mon 09:32:00 PM 29.8752 15.9024 347° North  Level Estimated
Mon 09:33:00 PM 29.9990 15.8685 347° North  Level Estimated
Mon 09:34:00 PM 30.1229 15.8345 347° North  Level Estimated
Mon 09:35:00 PM 30.2467 15.8004 347° North  Level Estimated
Mon 09:36:00 PM 30.3705 15.7663 347° North  Level Estimated
Mon 09:37:00 PM 30.4943 15.7320 347° North  Level Estimated
Mon 09:38:00 PM 30.6181 15.6977 347° North  Level Estimated
Mon 09:39:00 PM 30.7418 15.6633 347° North  Level Estimated
Mon 09:40:00 PM 30.8656 15.6288 347° North  Level Estimated
Mon 09:41:00 PM 30.9894 15.5942 347° North  Level Estimated
Mon 09:41:22 PM 32.6590 13.4320 347° North 462 532 38,000  Level FlightAware ADS-B
Mon 09:41:57 PM 32.7240 13.4240 354° North 462 532 38,000  Level FlightAware ADS-B
Mon 09:42:00 PM 31.1131 15.5595 347° North  Level Estimated
Mon 09:42:47 PM 32.8360 13.4130 355° North 463 533 38,000  Level FlightAware ADS-B
Mon 09:43:27 PM 32.9230 13.4030 354° North 463 533 38,000  Level FlightAware ADS-B
Mon 09:44:12 PM 33.0160 13.3930 355° North 459 528 38,000  Level FlightAware ADS-B
Mon 09:44:52 PM 33.1060 13.3830 355° North 459 528 38,000  Level FlightAware ADS-B
Mon 09:45:32 PM 33.1900 13.3740 355° North 461 531 38,000  Level FlightAware ADS-B
Mon 09:46:17 PM 33.2840 13.3640 355° North 459 528 38,000  Level FlightAware ADS-B
Mon 09:47:02 PM 33.3800 13.3530 355° North 462 532 38,000  Level FlightAware ADS-B
Mon 09:47:42 PM 33.4690 13.3430 355° North 461 531 38,000  Level FlightAware ADS-B
Mon 09:48:22 PM 33.5530 13.3340 355° North 457 526 38,000  Level FlightAware ADS-B
Mon 09:49:07 PM 33.6460 13.3240 355° North 456 525 38,000  Level FlightAware ADS-B
Mon 09:49:47 PM 33.7300 13.3170 356° North 458 527 38,000  Level FlightAware ADS-B
Mon 09:50:32 PM 33.8260 13.3150 359° North 456 525 38,000  Level FlightAware ADS-B
Mon 09:51:12 PM 33.9100 13.3130 359° North 454 522 38,000  Level FlightAware ADS-B
Mon 09:51:52 PM 33.9940 13.3100 358° North 452 520 38,000  Level FlightAware ADS-B
Mon 09:52:37 PM 34.0860 13.3070 358° North 453 521 38,000  Level FlightAware ADS-B
Mon 09:53:17 PM 34.1710 13.3040 358° North 455 524 38,000  Level FlightAware ADS-B
Mon 09:54:02 PM 34.2660 13.3010 359° North 457 526 38,000  Level FlightAware ADS-B
Mon 09:54:42 PM 34.3520 13.2980 358° North 457 526 38,000  Level FlightAware ADS-B
Mon 09:55:22 PM 34.4370 13.2950 358° North 456 525 38,000  Level FlightAware ADS-B
Mon 09:56:07 PM 34.5310 13.2920 358° North 452 520 38,000  Level FlightAware ADS-B
Mon 09:56:47 PM 34.6120 13.2890 358° North 451 519 38,000  Level FlightAware ADS-B
Mon 09:57:32 PM 34.7100 13.2850 358° North 453 521 38,000  Level FlightAware ADS-B
Mon 09:58:12 PM 34.7920 13.2830 359° North 452 520 38,000  Level FlightAware ADS-B
Mon 09:58:52 PM 34.8760 13.2800 358° North 451 519 38,000  Level FlightAware ADS-B
Mon 09:59:37 PM 34.9680 13.2760 358° North 450 518 38,000  Level FlightAware ADS-B
Mon 10:00:17 PM 35.0520 13.2740 359° North 453 521 38,000  Level FlightAware ADS-B
Mon 10:01:02 PM 35.1480 13.2700 358° North 451 519 38,000  Level FlightAware ADS-B
Mon 10:01:42 PM 35.2310 13.2670 358° North 451 519 38,000  Level FlightAware ADS-B
Mon 10:02:22 PM 35.3140 13.2640 358° North 451 519 38,000  Level FlightAware ADS-B
Mon 10:03:07 PM 35.4070 13.2610 358° North 452 520 38,000  Level FlightAware ADS-B
Mon 10:03:47 PM 35.4910 13.2580 358° North 453 521 38,000  Level FlightAware ADS-B
Mon 10:04:32 PM 35.5870 13.2550 359° North 453 521 38,000  Level FlightAware ADS-B
Mon 10:05:12 PM 35.6700 13.2520 358° North 452 520 38,000  Level FlightAware ADS-B
Mon 10:05:52 PM 35.7540 13.2490 358° North 453 521 38,000  Level FlightAware ADS-B
Mon 10:06:37 PM 35.8470 13.2450 358° North 452 520 38,000  Level FlightAware ADS-B
Mon 10:07:17 PM 35.9310 13.2420 358° North 451 519 38,000  Level FlightAware ADS-B
Mon 10:07:57 PM 36.0150 13.2390 358° North 458 527 38,000  Level FlightAware ADS-B
Mon 10:08:42 PM 36.1120 13.2360 359° North 466 536 38,000  Level FlightAware ADS-B
Mon 10:09:22 PM 36.1990 13.2330 358° North 464 534 38,000  Level FlightAware ADS-B
Mon 10:10:07 PM 36.2920 13.2290 358° North 462 532 38,000  Level FlightAware ADS-B
Mon 10:10:47 PM 36.3770 13.2260 358° North 455 524 38,000  Level FlightAware ADS-B
Mon 10:11:32 PM 36.4740 13.2230 359° North 451 519 38,000  Level FlightAware ADS-B
Mon 10:12:02 PM 36.5340 13.2210 358° North 453 521 38,000  Level FlightAware ADS-B
Mon 10:12:27 PM 36.5820 13.2280 North 464 534 38,000  Level FlightAware ADS-B
Mon 10:13:07 PM 36.6670 13.2510 12° North 465 535 38,000  Level FlightAware ADS-B
Mon 10:13:52 PM 36.7630 13.2780 13° North 461 531 38,000  Level FlightAware ADS-B
Mon 10:14:32 PM 36.8470 13.3020 13° North 462 532 38,000  Level FlightAware ADS-B
Mon 10:15:12 PM 36.9300 13.3270 14° North 463 533 38,000  Level FlightAware ADS-B
Mon 10:15:57 PM 37.0240 13.3550 13° North 466 536 38,000  Level FlightAware ADS-B
Mon 10:16:37 PM 37.1090 13.3810 14° North 464 534 38,000  Level FlightAware ADS-B
Mon 10:17:22 PM 37.2010 13.4070 13° North 460 529 38,000  Level FlightAware ADS-B
Mon 10:17:32 PM 37.2230 13.4070 360° North 452 520 38,000  Level FlightAware ADS-B
Mon 10:18:17 PM 37.3140 13.3950 354° North 452 520 38,000  Level FlightAware ADS-B
Mon 10:18:57 PM 37.3980 13.3860 355° North 451 519 38,000  Level FlightAware ADS-B
Mon 10:19:42 PM 37.4970 13.3740 355° North 451 519 38,000  Level FlightAware ADS-B
Mon 10:20:22 PM 37.5800 13.3650 355° North 450 518 38,000  Level FlightAware ADS-B
Mon 10:21:02 PM 37.6640 13.3550 355° North 449 517 38,000  Level FlightAware ADS-B
Mon 10:21:47 PM 37.7550 13.3440 355° North 446 513 38,000  Level FlightAware ADS-B
Mon 10:22:27 PM 37.8370 13.3350 355° North 442 509 38,000  Level FlightAware ADS-B
Mon 10:23:07 PM 37.9170 13.3250 354° North 441 507 38,000  Level FlightAware ADS-B
Mon 10:23:52 PM 38.0110 13.3140 355° North 440 506 38,000  Level FlightAware ADS-B
Mon 10:24:32 PM 38.0940 13.3040 355° North 442 509 38,000  Level FlightAware ADS-B
Mon 10:25:17 PM 38.1830 13.2940 355° North 445 512 38,000  Level FlightAware ADS-B
Mon 10:25:57 PM 38.2660 13.2840 355° North 445 512 38,000  Level FlightAware ADS-B
Mon 10:26:42 PM 38.3590 13.2730 355° North 445 512 38,000  Level FlightAware ADS-B
Mon 10:27:22 PM 38.4430 13.2630 355° North 445 512 38,000  Level FlightAware ADS-B
Mon 10:28:02 PM 38.5250 13.2530 355° North 444 511 38,000  Level FlightAware ADS-B
Mon 10:28:47 PM 38.6090 13.2430 355° North 443 510 38,000  Level FlightAware ADS-B
Mon 10:29:22 PM 38.6840 13.2340 355° North 444 511 38,000  Level FlightAware ADS-B
Mon 10:30:07 PM 38.7770 13.2230 355° North 444 511 38,000  Level FlightAware ADS-B
Mon 10:30:52 PM 38.8710 13.2100 354° North 443 510 38,000  Level FlightAware ADS-B
Mon 10:31:32 PM 38.9520 13.1880 348° North 443 510 38,000  Level FlightAware ADS-B
Mon 10:32:12 PM 39.0300 13.1670 348° North 443 510 38,000  Level FlightAware ADS-B
Mon 10:32:57 PM 39.1200 13.1430 348° North 444 511 38,000  Level FlightAware ADS-B
Mon 10:33:37 PM 39.2010 13.1210 348° North 443 510 38,000  Level FlightAware ADS-B
Mon 10:34:12 PM 39.2700 13.1030 349° North 444 511 38,000  Level FlightAware ADS-B
Mon 10:35:02 PM 39.3730 13.0750 348° North 447 514 38,000  Level FlightAware ADS-B
Mon 10:35:57 PM 39.4790 13.0460 348° North 449 517 38,000  Level FlightAware ADS-B
Mon 10:36:42 PM 39.5750 13.0200 348° North 449 517 38,000  Level FlightAware ADS-B
Mon 10:37:22 PM 39.6550 12.9980 348° North 448 516 38,000  Level FlightAware ADS-B
Mon 10:38:17 PM 39.7630 12.9680 348° North 448 516 38,000  Level FlightAware ADS-B
Mon 10:38:52 PM 39.8120 12.9550 348° North 448 516 38,000  Level FlightAware ADS-B
Mon 10:39:42 PM 39.9010 12.9300 348° North 449 517 38,000  Level FlightAware ADS-B
Mon 10:40:22 PM 39.7790 12.9640 168° South 450 518 38,000  Level FlightAware ADS-B
Mon 10:41:07 PM 40.0940 12.8770 348° North 451 519 38,000  Level FlightAware ADS-B
Mon 10:41:42 PM 40.1560 12.8600 348° North 452 520 38,000  Level FlightAware ADS-B
Mon 10:42:32 PM 40.2680 12.8290 348° North 449 517 38,000  Level FlightAware ADS-B
Mon 10:43:07 PM 40.3320 12.8110 348° North 450 518 38,000  Level FlightAware ADS-B
Mon 10:43:47 PM 40.4060 12.7900 348° North 450 518 38,000  Level FlightAware ADS-B
Mon 10:44:37 PM 40.5090 12.7610 348° North 449 517 38,000  Level FlightAware ADS-B
Mon 10:45:17 PM 40.5950 12.7370 348° North 443 510 38,000  Level FlightAware ADS-B
Mon 10:46:02 PM 40.6980 12.7080 348° North 441 507 38,000  Level FlightAware ADS-B
Mon 10:46:52 PM 40.7920 12.6820 348° North 441 507 38,000  Level FlightAware ADS-B
Mon 10:47:32 PM 40.8790 12.6570 348° North 444 511 38,000  Level FlightAware ADS-B
Mon 10:48:32 PM 40.9870 12.6250 347° North 446 513 38,000  Level FlightAware ADS-B
Mon 10:49:17 PM 41.0700 12.6020 348° North 446 513 38,000  Level FlightAware ADS-B
Mon 10:49:52 PM 41.1540 12.5780 348° North 448 516 38,000  Level FlightAware ADS-B
Mon 10:50:47 PM 41.2630 12.5470 348° North 447 514 38,000  Level FlightAware ADS-B
Mon 10:51:37 PM 41.3590 12.5190 348° North 445 512 38,000  Level FlightAware ADS-B
Mon 10:52:12 PM 41.4300 12.4990 348° North 444 511 38,000  Level FlightAware ADS-B
Mon 10:53:02 PM 41.5360 12.4680 348° North 443 510 38,000  Level FlightAware ADS-B
Mon 10:53:42 PM 41.6160 12.4450 348° North 443 510 38,000  Level FlightAware ADS-B
Mon 10:54:22 PM 41.6920 12.4230 348° North 445 512 38,000  Level FlightAware ADS-B
Mon 10:55:07 PM 41.8010 12.3910 348° North 447 514 38,000  Level FlightAware ADS-B
Mon 10:55:47 PM 41.8820 12.3670 348° North 444 511 38,000  Level FlightAware ADS-B
Mon 10:56:32 PM 41.9730 12.3410 348° North 441 507 38,000  Level FlightAware ADS-B
Mon 10:57:12 PM 42.0570 12.3160 348° North 441 507 38,000  Level FlightAware ADS-B
Mon 10:57:47 PM 42.1250 12.2960 348° North 441 507 38,000  Level FlightAware ADS-B
Mon 10:58:37 PM 42.2280 12.2650 347° North 442 509 38,000  Level FlightAware ADS-B
Mon 10:59:17 PM 42.3100 12.2410 348° North 444 511 38,000  Level FlightAware ADS-B
Mon 10:59:57 PM 42.3890 12.2180 348° North 444 511 38,000  Level FlightAware ADS-B
Mon 11:00:37 PM 42.4730 12.1920 347° North 441 507 38,000  Level FlightAware ADS-B
Mon 11:01:22 PM 42.5640 12.1650 348° North 442 509 38,000  Level FlightAware ADS-B
Mon 11:02:07 PM 42.6560 12.1370 347° North 442 509 38,000  Level FlightAware ADS-B
Mon 11:02:47 PM 42.7440 12.1110 348° North 449 517 38,000  Level FlightAware ADS-B
Mon 11:03:27 PM 42.8240 12.0870 348° North 450 518 38,000  Level FlightAware ADS-B
Mon 11:04:12 PM 42.9180 12.0580 347° North 451 519 38,000  Level FlightAware ADS-B
Mon 11:04:52 PM 42.9970 12.0340 347° North 450 518 38,000  Level FlightAware ADS-B
Mon 11:05:37 PM 43.0890 12.0060 347° North 449 517 38,000  Level FlightAware ADS-B
Mon 11:06:17 PM 43.1720 11.9810 348° North 451 519 38,000  Level FlightAware ADS-B
Mon 11:07:02 PM 43.2620 11.9530 347° North 451 519 38,000  Level FlightAware ADS-B
Mon 11:07:42 PM 43.3440 11.9280 347° North 448 516 38,000  Level FlightAware ADS-B
Mon 11:08:22 PM 43.4250 11.9090 350° North 451 519 38,000  Level FlightAware ADS-B
Mon 11:09:07 PM 43.5210 11.8960 354° North 452 520 38,000  Level FlightAware ADS-B
Mon 11:09:47 PM 43.6040 11.8840 354° North 453 521 38,000  Level FlightAware ADS-B
Mon 11:10:32 PM 43.6970 11.8710 354° North 454 522 38,000  Level FlightAware ADS-B
Mon 11:11:12 PM 43.7800 11.8590 354° North 454 522 38,000  Level FlightAware ADS-B
Mon 11:11:52 PM 43.8640 11.8470 354° North 456 525 38,000  Level FlightAware ADS-B
Mon 11:12:37 PM 43.9570 11.8340 354° North 456 525 38,000  Level FlightAware ADS-B
Mon 11:13:17 PM 44.0380 11.8220 354° North 456 525 38,000  Level FlightAware ADS-B
Mon 11:14:02 PM 44.1350 11.8080 354° North 456 525 38,000  Level FlightAware ADS-B
Mon 11:14:42 PM 44.2200 11.7960 354° North 457 526 38,000  Level FlightAware ADS-B
Mon 11:15:22 PM 44.3020 11.7840 354° North 457 526 38,000  Level FlightAware ADS-B
Mon 11:16:07 PM 44.4020 11.7700 354° North 459 528 38,000  Level FlightAware ADS-B
Mon 11:16:47 PM 44.4850 11.7580 354° North 458 527 38,000  Level FlightAware ADS-B
Mon 11:17:32 PM 44.5790 11.7440 354° North 456 525 38,000  Level FlightAware ADS-B
Mon 11:18:12 PM 44.6630 11.7320 354° North 458 527 38,000  Level FlightAware ADS-B
Mon 11:18:52 PM 44.7470 11.7190 354° North 458 527 38,000  Level FlightAware ADS-B
Mon 11:19:37 PM 44.8400 11.7060 354° North 458 527 38,000  Level FlightAware ADS-B
Mon 11:20:17 PM 44.9250 11.6930 354° North 459 528 38,000  Level FlightAware ADS-B
Mon 11:21:02 PM 45.0200 11.6790 354° North 460 529 38,000  Level FlightAware ADS-B
Mon 11:21:42 PM 45.1050 11.6660 354° North 462 532 38,000  Level FlightAware ADS-B
Mon 11:22:22 PM 45.1840 11.6540 354° North 463 533 38,000  Level FlightAware ADS-B
Mon 11:23:07 PM 45.2850 11.6390 354° North 462 532 38,000  Level FlightAware ADS-B
Mon 11:23:47 PM 45.3720 11.6260 354° North 460 529 38,000  Level FlightAware ADS-B
Mon 11:24:27 PM 45.4560 11.6130 354° North 460 529 38,000  Level FlightAware ADS-B
Mon 11:25:12 PM 45.5520 11.5990 354° North 462 532 38,000  Level FlightAware ADS-B
Mon 11:25:52 PM 45.6370 11.5860 354° North 463 533 38,000  Level FlightAware ADS-B
Mon 11:26:32 PM 45.7180 11.5740 354° North 463 533 38,000  Level FlightAware ADS-B
Mon 11:27:17 PM 45.8150 11.5590 354° North 465 535 38,000  Level FlightAware ADS-B
Mon 11:27:57 PM 45.9020 11.5460 354° North 465 535 38,000  Level FlightAware ADS-B
Mon 11:28:42 PM 46.0010 11.5300 354° North 465 535 38,000  Level FlightAware ADS-B
Mon 11:29:22 PM 46.0820 11.5180 354° North 462 532 38,000  Level FlightAware ADS-B
Mon 11:30:07 PM 46.1800 11.5030 354° North 458 527 38,000  Level FlightAware ADS-B
Mon 11:30:47 PM 46.2650 11.4900 354° North 457 526 38,000  Level FlightAware ADS-B
Mon 11:31:27 PM 46.3420 11.4780 354° North 460 529 38,000  Level FlightAware ADS-B
Mon 11:32:12 PM 46.4430 11.4620 354° North 462 532 38,000  Level FlightAware ADS-B
Mon 11:32:57 PM 46.5360 11.4470 354° North 460 529 38,000  Level FlightAware ADS-B
Mon 11:33:37 PM 46.6230 11.4360 355° North 461 531 38,000  Level FlightAware ADS-B
Mon 11:34:22 PM 46.7190 11.4310 358° North 462 532 38,000  Level FlightAware ADS-B
Mon 11:35:02 PM 46.8060 11.4250 357° North 461 531 38,000  Level FlightAware ADS-B
Mon 11:35:42 PM 46.8900 11.4180 357° North 461 531 38,000  Level FlightAware ADS-B
Mon 11:36:27 PM 46.9810 11.4120 357° North 462 532 38,000  Level FlightAware ADS-B
Mon 11:37:07 PM 47.0670 11.4040 356° North 461 531 38,000  Level FlightAware ADS-B
Mon 11:38:32 PM 47.2400 11.3520 348° North 462 532 38,000  Level FlightAware ADS-B
Mon 11:39:12 PM 47.3240 11.3270 349° North 460 529 38,000  Level FlightAware ADS-B
Mon 11:39:57 PM 47.4180 11.2980 348° North 462 532 38,000  Level FlightAware ADS-B
Mon 11:40:37 PM 47.5030 11.2710 348° North 463 533 38,000 -71 Level FlightAware ADS-B
Mon 11:41:22 PM 47.5960 11.2420 348° North 463 533 37,900 -494 Descending FlightAware ADS-B
Mon 11:42:02 PM 47.6810 11.2160 348° North 458 527 37,300 -975 Descending FlightAware ADS-B
Mon 11:42:42 PM 47.7630 11.1900 348° North 457 526 36,600 -1,200 Descending FlightAware ADS-B
Mon 11:43:27 PM 47.8600 11.1590 348° North 464 534 35,600 -1,624 Descending FlightAware ADS-B
Mon 11:44:07 PM 47.9420 11.1330 348° North 463 533 34,300 -1,976 Descending FlightAware ADS-B
Mon 11:44:52 PM 48.0370 11.1030 348° North 460 529 32,800 -1,624 Descending FlightAware ADS-B
Mon 11:45:32 PM 48.1200 11.0770 348° North 461 531 32,000 -565 Descending FlightAware ADS-B
Mon 11:46:17 PM 48.2140 11.0470 348° North 461 531 32,000 -212 Level FlightAware ADS-B
Mon 11:46:57 PM 48.2980 11.0200 348° North 447 514 31,700 -675 Descending FlightAware ADS-B
Mon 11:47:37 PM 48.3790 10.9940 348° North 441 507 31,100 -988 Descending FlightAware ADS-B
Mon 11:48:22 PM 48.4690 10.9650 348° North 430 495 30,300 -1,059 Descending FlightAware ADS-B
Mon 11:49:02 PM 48.5450 10.9330 344° North 429 494 29,600 -975 Descending FlightAware ADS-B
Mon 11:49:42 PM 48.6020 10.8700 324° Northwest 414 476 29,000 -918 Descending FlightAware ADS-B
Mon 11:50:27 PM 48.6750 10.7860 323° Northwest 407 468 28,300 -988 Descending FlightAware ADS-B
Mon 11:51:07 PM 48.7360 10.7140 322° Northwest 409 471 27,600 -1,341 Descending FlightAware ADS-B
Mon 11:51:52 PM 48.8040 10.6340 322° Northwest 395 455 26,400 -1,760 Descending FlightAware ADS-B
Mon 11:52:22 PM 48.8450 10.5860 322° Northwest 394 453 25,400 -1,800 Descending FlightAware ADS-B
Mon 11:53:12 PM 48.9080 10.5110 322° Northwest 397 457 24,000 -2,021 Descending FlightAware ADS-B
Mon 11:53:57 PM 48.9850 10.4190 322° Northwest 390 449 22,200 -2,000 Descending FlightAware ADS-B
Mon 11:54:57 PM 49.0570 10.3330 322° Northwest 386 444 20,500 -1,320 Descending FlightAware ADS-B
Mon 11:55:37 PM 49.1000 10.2810 322° Northwest 373 429 20,000 -316 Descending FlightAware ADS-B
Mon 11:56:32 PM 49.1950 10.1680 322° Northwest 356 410 20,000  Level FlightAware ADS-B
Mon 11:57:07 PM 49.2370 10.1170 322° Northwest 357 411 20,000 -75 Level FlightAware ADS-B
Mon 11:57:52 PM 49.3050 10.0350 322° Northwest 356 410 19,900 -600 Descending FlightAware ADS-B
Mon 11:58:37 PM 49.3630 9.9640 321° Northwest 354 407 19,100 -988 Descending FlightAware ADS-B
Mon 11:59:17 PM 49.4150 9.9000 321° Northwest 351 404 18,500 -988 Descending FlightAware ADS-B
Tue 12:00:02 AM 49.4730 9.8300 322° Northwest 354 407 17,700 -988 Descending FlightAware ADS-B
Tue 12:00:42 AM 49.5240 9.7670 321° Northwest 346 398 17,100 -1,200 Descending FlightAware ADS-B
Tue 12:01:22 AM 49.5740 9.7060 322° Northwest 339 390 16,100 -1,765 Descending FlightAware ADS-B
Tue 12:02:07 AM 49.6300 9.6370 321° Northwest 350 403 14,600 -1,976 Descending FlightAware ADS-B
Tue 12:02:47 AM 49.6810 9.5740 321° Northwest 351 404 13,300 -1,694 Descending FlightAware ADS-B
Tue 12:03:32 AM 49.7350 9.5060 321° Northwest 337 388 12,200 -1,341 Descending FlightAware ADS-B
Tue 12:04:12 AM 49.7850 9.4440 321° Northwest 329 379 11,400 -1,425 Descending FlightAware ADS-B
Tue 12:04:52 AM 49.8320 9.3850 321° Northwest 328 377 10,300 -1,629 Descending FlightAware ADS-B
Tue 12:05:22 AM 49.8680 9.3420 322° Northwest 327 376 9,500 -1,309 Descending FlightAware ADS-B
Tue 12:05:47 AM 49.8970 9.3070 322° Northwest 316 364 9,100 -1,067 Descending FlightAware ADS-B
Tue 12:06:07 AM 49.9170 9.2820 321° Northwest 311 358 8,700 -1,600 Descending FlightAware ADS-B
Tue 12:06:47 AM 49.9620 9.2200 318° Northwest 311 358 7,500 -1,745 Descending FlightAware ADS-B
Tue 12:07:02 AM 49.9780 9.1950 315° West 311 358 7,100 -960 Descending FlightAware ADS-B
Tue 12:07:37 AM 50.0130 9.1390 314° West 6,600 -889 Descending FlightAware ADS-B
Tue 12:08:37 AM 50.0660 9.0540 314° West 5,500 -900 Descending FlightAware ADS-B
Tue 12:09:17 AM 50.1010 8.9960 313° West 268 308 5,100 -1,385 Descending FlightAware ADS-B
Tue 12:09:42 AM 50.1130 8.9600 297° West 233 268 4,000 -1,200 Descending FlightAware ADS-B
Tue 12:10:17 AM 50.1140 8.9000 272° West 223 257 3,900 -218 Descending FlightAware ADS-B
Tue 12:10:37 AM 50.1080 8.8750 249° West 213 245 3,800 -133 Descending FlightAware ADS-B
Tue 12:11:02 AM 50.1000 8.8390 251° West 213 245 3,800 -857 Level FlightAware ADS-B
Tue 12:11:47 AM 50.0870 8.7830 250° West 2,900 -1,125 Descending FlightAware ADS-B
Tue 12:12:22 AM 50.0770 8.7440 248° West 175 201 2,300 -1,000 Descending FlightAware ADS-B
Tue 12:12:47 AM 50.0700 8.7130 251° West 168 193 1,900 -873 Descending FlightAware ADS-B
Tue 12:13:17 AM 50.0630 8.6840 249° West 159 183 1,500 -436 Descending FlightAware ADS-B
Tue 12:13:42 AM 50.0570 8.6570 251° West 159 183 1,500  Level FlightAware ADS-B
Tue 12:16:00 AM 50.0264 8.5431 247° West  Level Estimated
Tue 12:17:00 AM 50.0264 8.5431 73° East  Level Estimated
Tue 12:18:00 AM 50.0264 8.5431 73° East  Level Estimated
Tue 12:19:00 AM 50.0264 8.5431 73° East  Level Estimated
Tue 12:20:00 AM 50.0264 8.5431 73° East  Level Estimated
Tue 12:21:00 AM 50.0264 8.5431 73° East  Level Estimated
Tue 12:22:00 AM 50.0264 8.5431 73° East  Level Estimated
Tue 12:23:00 AM 50.0264 8.5431 73° East  Level Estimated
Tue 12:24:00 AM 50.0264 8.5431 73° East  Level Estimated
Tue 12:25:00 AM 50.0264 8.5431 73° East  Level Estimated
Tue 12:26:00 AM 50.0264 8.5431 73° East  Level Estimated
Tue 12:27:00 AM 50.0264 8.5431 73° East  Level Estimated

Login

Don't have an account? Register now (free) for customized features, flight alerts, and more!